Terminal Aerodrome Forecast
Issued by NWS Louisville, KY

Home | Current Version | Previous Version | Text Only | Print | Product List | Glossary On
Versions: 1 2 3 4 5 6 7 8 9 10 11 12 13 14 15 16 17 18
079
FTUS43 KLMK 270529
TAFLEX
TAF
KLEX 270529Z 2706/2806 16005KT P6SM SCT150 BKN250
     FM270900 17004KT 5SM BR SCT120
     FM271400 21011KT P6SM SCT050
     FM280000 17005KT P6SM BKN250=

USA.gov is the U.S. government's official web portal to all federal, state and local government web resources and services.